createdAt,value
2022-09-27T00:01:13.238Z,86099.88
2022-09-27T00:03:40.989Z,86090.47
2022-09-27T00:06:22.432Z,86085.97
2022-09-27T00:08:49.592Z,86085.19
2022-09-27T00:11:39.354Z,86081.44
2022-09-27T00:14:08.522Z,86071.00
2022-09-27T00:16:39.442Z,86068.66
2022-09-27T00:19:20.516Z,86065.28
2022-09-27T00:21:48.520Z,86065.28
2022-09-27T00:24:20.226Z,86070.16
2022-09-27T00:26:48.670Z,86063.38
2022-09-27T00:29:19.031Z,86059.22
2022-09-27T00:31:47.089Z,86053.19
2022-09-27T00:34:22.368Z,86059.28
2022-09-27T00:36:50.364Z,86068.72
2022-09-27T00:39:17.864Z,86065.28
2022-09-27T00:41:45.197Z,86065.22
2022-09-27T00:44:27.553Z,86068.28
2022-09-27T00:47:25.985Z,86061.50
2022-09-27T00:50:02.713Z,86056.66
2022-09-27T00:52:51.457Z,86052.47
2022-09-27T00:55:30.418Z,86046.88
2022-09-27T00:57:58.159Z,86038.25
2022-09-27T01:00:25.431Z,86040.09
2022-09-27T01:02:56.299Z,86028.81
2022-09-27T01:05:28.457Z,86028.81
2022-09-27T01:07:55.721Z,86021.31
2022-09-27T01:10:23.962Z,86017.16
2022-09-27T01:13:30.186Z,86013.34
2022-09-27T01:16:24.049Z,86009.63
2022-09-27T01:19:31.009Z,86010.72
2022-09-27T01:22:13.928Z,86010.78
2022-09-27T01:25:08.752Z,86007.75
2022-09-27T01:28:12.810Z,86009.25
2022-09-27T01:31:00.217Z,85996.47
2022-09-27T01:34:05.710Z,85985.94
2022-09-27T01:37:00.240Z,85979.94
2022-09-27T01:39:52.870Z,85981.06
2022-09-27T01:42:52.931Z,85979.94
2022-09-27T01:45:26.265Z,85970.13
2022-09-27T01:48:03.605Z,85968.66
2022-09-27T01:50:44.764Z,85958.88
2022-09-27T01:53:28.974Z,85960.00
2022-09-27T01:55:58.569Z,85949.88
2022-09-27T01:58:46.656Z,85952.09
2022-09-27T02:01:18.791Z,85944.22
2022-09-27T02:03:51.893Z,85942.75
2022-09-27T02:06:31.213Z,85939.34
2022-09-27T02:09:10.566Z,85935.97
2022-09-27T02:11:45.489Z,85932.59
2022-09-27T02:14:22.016Z,85936.38
2022-09-27T02:16:54.884Z,85936.03
2022-09-27T02:20:16.944Z,85926.66
2022-09-27T02:23:17.286Z,85913.56
2022-09-27T02:25:56.994Z,85907.94
2022-09-27T02:28:45.711Z,85898.91
2022-09-27T02:31:13.009Z,85895.19
2022-09-27T02:33:52.788Z,85894.03
2022-09-27T02:36:21.582Z,85889.50
2022-09-27T02:38:49.823Z,85889.91
2022-09-27T02:41:22.912Z,85895.94
2022-09-27T02:43:57.731Z,85891.94
2022-09-27T02:46:36.190Z,85896.09
2022-09-27T02:49:19.659Z,85892.41
2022-09-27T02:52:18.604Z,85887.88
2022-09-27T02:55:22.221Z,85883.75
2022-09-27T02:58:30.699Z,85879.28
2022-09-27T03:01:33.581Z,85888.31
2022-09-27T03:04:27.861Z,85884.19
2022-09-27T03:07:00.123Z,85886.06
2022-09-27T03:09:40.111Z,85892.09
2022-09-27T03:12:07.280Z,85889.13
2022-09-27T03:14:34.396Z,85892.50
2022-09-27T03:17:01.648Z,85885.47
2022-09-27T03:19:28.876Z,85886.59
2022-09-27T03:21:56.091Z,85881.69
2022-09-27T03:24:23.451Z,85882.03
2022-09-27T03:26:50.812Z,85873.78
2022-09-27T03:29:20.665Z,85876.75
2022-09-27T03:31:47.905Z,85866.22
2022-09-27T03:34:15.076Z,85868.47
2022-09-27T03:36:42.301Z,85871.84
2022-09-27T03:39:09.527Z,85861.72
2022-09-27T03:41:37.229Z,85857.53
2022-09-27T03:44:04.481Z,85862.41
2022-09-27T03:46:31.786Z,85859.00
2022-09-27T03:48:59.060Z,85853.75
2022-09-27T03:51:26.838Z,85849.22
2022-09-27T03:53:54.097Z,85832.31
2022-09-27T03:56:21.214Z,85833.81
2022-09-27T03:58:48.489Z,85833.44
2022-09-27T04:01:15.867Z,85827.03
2022-09-27T04:03:43.183Z,85822.53
2022-09-27T04:06:10.402Z,85822.53
2022-09-27T04:08:37.797Z,85807.88
2022-09-27T04:11:05.080Z,85813.50
2022-09-27T04:13:32.287Z,85809.75
2022-09-27T04:15:59.667Z,85801.13
2022-09-27T04:18:26.929Z,85793.94
2022-09-27T04:20:54.153Z,85798.47
2022-09-27T04:23:21.344Z,85798.47
2022-09-27T04:25:48.515Z,85793.94
2022-09-27T04:28:15.781Z,85787.19
2022-09-27T04:30:43.050Z,85787.56
2022-09-27T04:33:10.351Z,85796.97
2022-09-27T04:35:37.533Z,85787.56
2022-09-27T04:38:05.198Z,85778.16
2022-09-27T04:40:35.383Z,85781.13
2022-09-27T04:43:02.894Z,85781.44
2022-09-27T04:45:30.445Z,85787.13
2022-09-27T04:47:57.711Z,85782.25
2022-09-27T04:50:25.149Z,85781.50
2022-09-27T04:52:54.266Z,85777.78
2022-09-27T04:55:22.416Z,85777.41
2022-09-27T04:57:50.068Z,85784.13
2022-09-27T05:00:17.940Z,85786.78
2022-09-27T05:02:46.520Z,85781.13
2022-09-27T05:05:14.862Z,85787.84
2022-09-27T05:07:42.214Z,85788.19
2022-09-27T05:10:10.329Z,85796.16
2022-09-27T05:12:37.649Z,85792.31
2022-09-27T05:15:05.764Z,85782.59
2022-09-27T05:17:32.992Z,85785.97
2022-09-27T05:20:00.335Z,85783.75
2022-09-27T05:22:27.525Z,85787.13
2022-09-27T05:24:54.629Z,85780.38
2022-09-27T05:27:21.869Z,85780.28
2022-09-27T05:29:49.115Z,85772.81
2022-09-27T05:32:16.604Z,85778.41
2022-09-27T05:34:43.851Z,85774.63
2022-09-27T05:37:11.100Z,85782.13
2022-09-27T05:39:38.231Z,85777.28
2022-09-27T05:42:05.520Z,85774.56
2022-09-27T05:44:32.713Z,85768.91
2022-09-27T05:47:03.564Z,85784.63
2022-09-27T05:49:31.034Z,85775.72
2022-09-27T05:51:58.353Z,85783.94
2022-09-27T05:54:25.826Z,85784.75
2022-09-27T05:56:57.239Z,85769.72
2022-09-27T05:59:26.274Z,85778.69
2022-09-27T06:01:54.643Z,85787.34
2022-09-27T06:04:22.356Z,85791.44
2022-09-27T06:06:49.637Z,85785.09
2022-09-27T06:09:17.751Z,85788.06
2022-09-27T06:11:45.652Z,85783.13
2022-09-27T06:14:14.125Z,85776.38
2022-09-27T06:16:41.405Z,85779.00
2022-09-27T06:19:08.968Z,85777.47
2022-09-27T06:21:36.147Z,85778.94
2022-09-27T06:24:03.779Z,85777.13
2022-09-27T06:26:31.000Z,85780.16
2022-09-27T06:28:58.228Z,85775.59
2022-09-27T06:31:25.412Z,85777.38
2022-09-27T06:33:52.607Z,85781.84
2022-09-27T06:36:19.773Z,85775.03
2022-09-27T06:38:46.904Z,85770.09
2022-09-27T06:41:14.084Z,85773.47
2022-09-27T06:43:41.234Z,85773.38
2022-09-27T06:46:08.829Z,85773.38
2022-09-27T06:48:36.420Z,85770.38
2022-09-27T06:51:04.371Z,85762.47
2022-09-27T06:53:31.947Z,85768.78
2022-09-27T06:56:03.277Z,85772.50
2022-09-27T06:58:30.536Z,85767.50
2022-09-27T07:00:57.937Z,85774.25
2022-09-27T07:03:28.476Z,85771.97
2022-09-27T07:06:06.468Z,85767.75
2022-09-27T07:08:33.825Z,85774.09
2022-09-27T07:11:07.460Z,85779.31
2022-09-27T07:13:35.675Z,85778.88
2022-09-27T07:16:03.449Z,85775.91
2022-09-27T07:18:30.751Z,85775.50
2022-09-27T07:21:00.707Z,85780.72
2022-09-27T07:23:28.211Z,85777.66
2022-09-27T07:25:55.590Z,85784.75
2022-09-27T07:28:23.192Z,85779.81
2022-09-27T07:30:55.565Z,85773.72
2022-09-27T07:33:23.273Z,85774.78
2022-09-27T07:35:50.545Z,85780.31
2022-09-27T07:38:17.745Z,85777.94
2022-09-27T07:40:44.981Z,85775.31
2022-09-27T07:43:12.478Z,85783.13
2022-09-27T07:45:40.051Z,85785.75
2022-09-27T07:48:11.305Z,85780.50
2022-09-27T07:50:38.558Z,85782.31
2022-09-27T07:53:05.903Z,85786.41
2022-09-27T07:55:33.591Z,85778.50
2022-09-27T07:58:10.554Z,85788.66
2022-09-27T08:00:39.580Z,85773.25
2022-09-27T08:03:13.566Z,85782.72
2022-09-27T08:05:40.783Z,85785.75
2022-09-27T08:08:08.527Z,85783.56
2022-09-27T08:10:36.321Z,85778.94
2022-09-27T08:13:05.467Z,85780.00
2022-09-27T08:15:34.722Z,85780.66
2022-09-27T08:18:02.177Z,85779.53
2022-09-27T08:20:29.395Z,85780.56
2022-09-27T08:22:56.664Z,85778.94
2022-09-27T08:25:24.076Z,85777.06
2022-09-27T08:27:59.780Z,85780.69
2022-09-27T08:30:29.025Z,85782.13
2022-09-27T08:33:01.907Z,85793.03
2022-09-27T08:35:29.818Z,85821.47
2022-09-27T08:37:59.868Z,85837.66
2022-09-27T08:41:02.477Z,85835.47
2022-09-27T08:44:14.417Z,85849.00
2022-09-27T08:47:23.149Z,85876.84
2022-09-27T08:50:11.902Z,85880.59
2022-09-27T08:52:55.625Z,85889.94
2022-09-27T08:55:45.242Z,85918.28
2022-09-27T08:58:31.178Z,85913.25
2022-09-27T09:01:04.447Z,85935.16
2022-09-27T09:03:37.935Z,85944.38
2022-09-27T09:06:29.182Z,85961.69
2022-09-27T09:09:27.177Z,85969.72
2022-09-27T09:12:12.122Z,85979.94
2022-09-27T09:15:21.769Z,85976.59
2022-09-27T09:18:02.472Z,85981.88
2022-09-27T09:21:07.115Z,85992.34
2022-09-27T09:23:52.734Z,85995.03
2022-09-27T09:26:40.398Z,85995.38
2022-09-27T09:29:31.477Z,85994.25
2022-09-27T09:32:34.764Z,85985.25
2022-09-27T09:35:10.856Z,85995.31
2022-09-27T09:37:58.060Z,85984.72
2022-09-27T09:40:42.503Z,85989.16
2022-09-27T09:43:32.667Z,85975.59
2022-09-27T09:46:22.923Z,85976.94
2022-09-27T09:49:00.407Z,85968.56
2022-09-27T09:51:36.292Z,85972.19
2022-09-27T09:54:30.557Z,85965.41
2022-09-27T09:57:33.922Z,85956.69
2022-09-27T10:00:13.189Z,85961.84
2022-09-27T10:02:44.819Z,85967.75
2022-09-27T10:05:20.881Z,85973.75
2022-09-27T10:07:51.233Z,85967.69
2022-09-27T10:10:21.565Z,85970.28
2022-09-27T10:12:50.580Z,85969.09
2022-09-27T10:15:22.318Z,85968.97
2022-09-27T10:17:54.628Z,85974.16
2022-09-27T10:20:42.262Z,85972.22
2022-09-27T10:23:17.519Z,85961.19
2022-09-27T10:25:57.721Z,85955.72
2022-09-27T10:28:43.882Z,85955.84
2022-09-27T10:31:17.151Z,85954.00
2022-09-27T10:34:02.389Z,85951.31
2022-09-27T10:36:34.402Z,85953.56
2022-09-27T10:39:05.945Z,85953.94
2022-09-27T10:41:41.892Z,85951.28
2022-09-27T10:44:32.141Z,85953.19
2022-09-27T10:47:09.789Z,85963.09
2022-09-27T10:49:41.345Z,85953.25
2022-09-27T10:52:23.556Z,85961.28
2022-09-27T10:54:57.971Z,85951.22
2022-09-27T10:57:28.868Z,85958.97
2022-09-27T11:00:08.438Z,85955.09
2022-09-27T11:02:38.533Z,85957.25
2022-09-27T11:05:37.571Z,85957.63
2022-09-27T11:08:20.056Z,85959.44
2022-09-27T11:11:14.649Z,85961.34
2022-09-27T11:13:57.771Z,85950.22
2022-09-27T11:16:50.899Z,85948.09
2022-09-27T11:19:45.992Z,85935.31
2022-09-27T11:22:28.950Z,85935.38
2022-09-27T11:25:38.459Z,85934.41
2022-09-27T11:28:19.666Z,85937.22
2022-09-27T11:31:02.128Z,85938.47
2022-09-27T11:33:57.590Z,85930.25
2022-09-27T11:37:13.874Z,85927.97
2022-09-27T11:40:16.076Z,85919.44
2022-09-27T11:42:58.437Z,85923.69
2022-09-27T11:46:03.190Z,85924.44
2022-09-27T11:48:44.362Z,85919.41
2022-09-27T11:51:37.551Z,85916.41
2022-09-27T11:54:22.545Z,85910.22
2022-09-27T11:57:11.256Z,85907.84
2022-09-27T11:59:56.866Z,85916.06
2022-09-27T12:02:58.225Z,85906.66
2022-09-27T12:05:57.758Z,85906.84
2022-09-27T12:08:54.177Z,85897.31
2022-09-27T12:11:38.920Z,85888.81
2022-09-27T12:14:38.927Z,85884.78
2022-09-27T12:17:15.433Z,85882.56
2022-09-27T12:19:50.170Z,85884.72
2022-09-27T12:22:58.255Z,85887.44
2022-09-27T12:25:32.194Z,85875.97
2022-09-27T12:28:18.276Z,85882.13
2022-09-27T12:31:10.840Z,85879.47
2022-09-27T12:34:28.080Z,85874.72
2022-09-27T12:37:24.508Z,85863.63
2022-09-27T12:40:26.307Z,85867.03
2022-09-27T12:43:24.456Z,85865.56
2022-09-27T12:46:13.309Z,85863.84
2022-09-27T12:49:27.839Z,85863.97
2022-09-27T12:52:08.653Z,85866.38
2022-09-27T12:55:13.683Z,85876.22
2022-09-27T12:58:20.903Z,85879.97
2022-09-27T13:01:23.001Z,85883.03
2022-09-27T13:04:32.111Z,85885.91
2022-09-27T13:07:30.537Z,85908.44
2022-09-27T13:10:31.025Z,85908.69
2022-09-27T13:12:59.955Z,85920.13
2022-09-27T13:15:35.083Z,85914.75
2022-09-27T13:18:07.122Z,85903.00
2022-09-27T13:20:39.194Z,85906.91
2022-09-27T13:23:18.744Z,85910.38
2022-09-27T13:25:54.253Z,85912.19
2022-09-27T13:28:31.804Z,85912.94
2022-09-27T13:31:09.382Z,85919.91
2022-09-27T13:33:52.632Z,85925.13
2022-09-27T13:36:24.370Z,85920.88
2022-09-27T13:39:16.601Z,85916.44
2022-09-27T13:41:46.839Z,85918.78
2022-09-27T13:44:49.384Z,85917.19
2022-09-27T13:47:32.061Z,85922.38
2022-09-27T13:50:39.528Z,85918.13
2022-09-27T13:53:40.422Z,85915.13
2022-09-27T13:56:49.279Z,85913.97
2022-09-27T13:59:32.364Z,85909.75
2022-09-27T14:02:27.163Z,85914.09
2022-09-27T14:04:57.985Z,85911.31
2022-09-27T14:07:37.126Z,85918.78
2022-09-27T14:10:07.049Z,85930.75
2022-09-27T14:12:39.292Z,85935.16
2022-09-27T14:15:12.694Z,85932.44
2022-09-27T14:17:43.454Z,85932.97
2022-09-27T14:20:42.233Z,85938.91
2022-09-27T14:23:25.340Z,85942.63
2022-09-27T14:25:55.320Z,85941.44
2022-09-27T14:28:26.273Z,85948.31
2022-09-27T14:31:23.794Z,85948.09
2022-09-27T14:34:05.573Z,85952.34
2022-09-27T14:36:36.253Z,85939.53
2022-09-27T14:39:21.540Z,85943.34
2022-09-27T14:41:48.826Z,85944.84
2022-09-27T14:44:25.889Z,85939.94
2022-09-27T14:47:26.193Z,85939.75
2022-09-27T14:50:17.012Z,85933.16
2022-09-27T14:52:44.423Z,85931.88
2022-09-27T14:55:19.704Z,85938.78
2022-09-27T14:57:59.445Z,85942.91
2022-09-27T15:00:33.843Z,85953.22
2022-09-27T15:03:05.675Z,85954.06
2022-09-27T15:05:35.208Z,85952.56
2022-09-27T15:08:06.770Z,85957.63
2022-09-27T15:10:37.324Z,85966.09
2022-09-27T15:13:06.184Z,85959.19
2022-09-27T15:15:38.727Z,85955.75
2022-09-27T15:18:34.094Z,85968.22
2022-09-27T15:21:02.757Z,85961.41
2022-09-27T15:23:37.039Z,85970.00
2022-09-27T15:26:27.159Z,85964.69
2022-09-27T15:28:54.534Z,85964.84
2022-09-27T15:31:35.087Z,85969.88
2022-09-27T15:34:04.338Z,85970.91
2022-09-27T15:36:58.210Z,85973.63
2022-09-27T15:39:38.933Z,85969.59
2022-09-27T15:42:13.709Z,85964.72
2022-09-27T15:44:47.034Z,85963.00
2022-09-27T15:47:32.507Z,85970.34
2022-09-27T15:50:15.554Z,85977.69
2022-09-27T15:52:48.905Z,85985.81
2022-09-27T15:55:18.452Z,85982.91
2022-09-27T15:57:54.193Z,85981.97
2022-09-27T16:00:22.025Z,85981.41
2022-09-27T16:02:49.647Z,85984.22
2022-09-27T16:05:17.021Z,85989.56
2022-09-27T16:07:44.378Z,85994.59
2022-09-27T16:10:18.745Z,85999.59
2022-09-27T16:12:49.418Z,85998.28
2022-09-27T16:15:18.286Z,85997.78
2022-09-27T16:17:46.675Z,86003.47
2022-09-27T16:20:25.863Z,86003.97
2022-09-27T16:22:58.261Z,86001.47
2022-09-27T16:25:27.885Z,86000.38
2022-09-27T16:28:02.181Z,86014.44
2022-09-27T16:30:30.054Z,86018.31
2022-09-27T16:32:57.814Z,86018.78
2022-09-27T16:35:26.744Z,86023.03
2022-09-27T16:37:54.509Z,86024.66
2022-09-27T16:40:22.050Z,86036.06
2022-09-27T16:42:49.861Z,86031.28
2022-09-27T16:45:19.437Z,86032.53
2022-09-27T16:47:47.516Z,86042.75
2022-09-27T16:50:15.539Z,86046.25
2022-09-27T16:52:43.121Z,86048.22
2022-09-27T16:55:10.624Z,86049.47
2022-09-27T16:57:37.827Z,86054.06
2022-09-27T17:00:06.932Z,86046.28
2022-09-27T17:02:34.175Z,86063.34
2022-09-27T17:05:01.485Z,86065.69
2022-09-27T17:07:28.667Z,86068.03
2022-09-27T17:09:56.064Z,86060.19
2022-09-27T17:12:23.303Z,86065.09
2022-09-27T17:14:51.223Z,86067.44
2022-09-27T17:17:18.492Z,86074.31
2022-09-27T17:19:45.647Z,86075.09
2022-09-27T17:22:12.863Z,86077.44
2022-09-27T17:24:40.227Z,86078.59
2022-09-27T17:27:07.558Z,86088.09
2022-09-27T17:29:34.783Z,86091.56
2022-09-27T17:32:02.063Z,86093.13
2022-09-27T17:34:29.320Z,86094.31
2022-09-27T17:36:56.487Z,86101.88
2022-09-27T17:39:23.767Z,86103.00
2022-09-27T17:41:51.374Z,86116.56
2022-09-27T17:44:19.966Z,86109.88
2022-09-27T17:46:47.940Z,86116.31
2022-09-27T17:49:15.296Z,86134.31
2022-09-27T17:51:46.070Z,86120.09
2022-09-27T17:54:14.384Z,86126.88
2022-09-27T17:56:43.814Z,86125.44
2022-09-27T17:59:14.109Z,86121.72
2022-09-27T18:01:42.716Z,86122.47
2022-09-27T18:04:14.217Z,86133.06
2022-09-27T18:06:45.463Z,86129.34
2022-09-27T18:09:17.325Z,86139.84
2022-09-27T18:11:45.813Z,86144.00
2022-09-27T18:14:14.201Z,86147.41
2022-09-27T18:16:43.786Z,86148.56
2022-09-27T18:19:17.839Z,86145.59
2022-09-27T18:21:46.097Z,86137.69
2022-09-27T18:24:14.529Z,86143.31
2022-09-27T18:26:44.373Z,86142.50
2022-09-27T18:29:16.285Z,86134.63
2022-09-27T18:31:48.478Z,86133.09
2022-09-27T18:34:19.583Z,86130.47
2022-09-27T18:36:48.390Z,86134.25
2022-09-27T18:39:19.986Z,86132.34
2022-09-27T18:41:49.495Z,86136.91
2022-09-27T18:44:21.031Z,86127.13
2022-09-27T18:46:50.962Z,86134.25
2022-09-27T18:49:23.454Z,86138.00
2022-09-27T18:51:55.273Z,86134.25
2022-09-27T18:54:23.849Z,86142.47
2022-09-27T18:56:53.390Z,86141.31
2022-09-27T18:59:23.594Z,86139.44
2022-09-27T19:01:53.654Z,86155.22
2022-09-27T19:04:23.639Z,86141.66
2022-09-27T19:06:56.062Z,86145.06
2022-09-27T19:09:24.753Z,86140.91
2022-09-27T19:11:52.537Z,86140.88
2022-09-27T19:14:22.863Z,86135.59
2022-09-27T19:16:51.410Z,86130.28
2022-09-27T19:19:22.246Z,86124.63
2022-09-27T19:21:49.853Z,86129.88
2022-09-27T19:24:19.592Z,86138.59
2022-09-27T19:26:49.633Z,86129.97
2022-09-27T19:29:18.404Z,86134.50
2022-09-27T19:31:50.491Z,86139.78
2022-09-27T19:34:18.118Z,86139.03
2022-09-27T19:36:45.374Z,86143.22
2022-09-27T19:39:13.615Z,86143.94
2022-09-27T19:41:45.010Z,86147.75
2022-09-27T19:44:14.161Z,86147.69
2022-09-27T19:46:43.566Z,86144.72
2022-09-27T19:49:12.010Z,86142.81
2022-09-27T19:51:39.165Z,86155.97
2022-09-27T19:54:10.116Z,86150.38
2022-09-27T19:56:37.345Z,86159.78
2022-09-27T19:59:07.485Z,86161.63
2022-09-27T20:01:35.038Z,86163.88
2022-09-27T20:04:04.023Z,86164.63
2022-09-27T20:06:32.132Z,86162.75
2022-09-27T20:08:59.998Z,86158.25
2022-09-27T20:11:27.133Z,86163.19
2022-09-27T20:13:54.961Z,86162.75
2022-09-27T20:16:26.220Z,86158.59
2022-09-27T20:18:56.818Z,86152.66
2022-09-27T20:21:31.297Z,86159.00
2022-09-27T20:24:02.251Z,86164.28
2022-09-27T20:26:32.449Z,86169.19
2022-09-27T20:29:04.275Z,86160.22
2022-09-27T20:31:38.079Z,86153.47
2022-09-27T20:34:14.279Z,86164.75
2022-09-27T20:36:44.411Z,86161.78
2022-09-27T20:39:15.344Z,86158.75
2022-09-27T20:41:47.121Z,86164.06
2022-09-27T20:44:18.306Z,86165.94
2022-09-27T20:46:47.772Z,86157.66
2022-09-27T20:49:19.016Z,86159.53
2022-09-27T20:51:48.580Z,86157.31
2022-09-27T20:54:16.731Z,86173.47
2022-09-27T20:56:47.630Z,86161.50
2022-09-27T20:59:19.326Z,86155.09
2022-09-27T21:01:49.532Z,86153.97
2022-09-27T21:04:19.905Z,86154.72
2022-09-27T21:06:47.112Z,86159.63
2022-09-27T21:09:15.496Z,86161.50
2022-09-27T21:11:42.937Z,86151.00
2022-09-27T21:14:10.271Z,86163.72
2022-09-27T21:16:37.832Z,86162.25
2022-09-27T21:19:05.378Z,86158.13
2022-09-27T21:21:32.658Z,86147.22
2022-09-27T21:24:01.672Z,86147.22
2022-09-27T21:26:33.309Z,86138.19
2022-09-27T21:29:07.455Z,86148.31
2022-09-27T21:31:35.131Z,86143.81
2022-09-27T21:34:05.562Z,86148.31
2022-09-27T21:36:36.804Z,86152.09
2022-09-27T21:39:07.119Z,86154.28
2022-09-27T21:41:34.417Z,86146.84
2022-09-27T21:44:04.846Z,86151.28
2022-09-27T21:46:32.253Z,86149.13
2022-09-27T21:49:01.470Z,86150.59
2022-09-27T21:51:34.416Z,86146.84
2022-09-27T21:54:05.132Z,86154.38
2022-09-27T21:56:35.950Z,86156.59
2022-09-27T21:59:03.970Z,86155.84
2022-09-27T22:01:34.411Z,86151.75
2022-09-27T22:04:05.197Z,86155.09
2022-09-27T22:06:38.356Z,86155.44
2022-09-27T22:09:13.959Z,86152.81
2022-09-27T22:11:43.603Z,86166.00
2022-09-27T22:14:12.145Z,86162.28
2022-09-27T22:16:39.520Z,86169.41
2022-09-27T22:19:06.801Z,86159.28
2022-09-27T22:21:37.613Z,86149.53
2022-09-27T22:24:10.978Z,86156.63
2022-09-27T22:26:40.908Z,86154.38
2022-09-27T22:29:08.859Z,86149.19
2022-09-27T22:31:37.530Z,86143.13
2022-09-27T22:34:08.160Z,86139.78
2022-09-27T22:36:35.883Z,86144.66
2022-09-27T22:39:03.366Z,86139.78
2022-09-27T22:41:30.701Z,86154.44
2022-09-27T22:43:58.172Z,86149.19
2022-09-27T22:46:25.648Z,86151.44
2022-09-27T22:48:53.076Z,86154.47
2022-09-27T22:51:20.213Z,86154.09
2022-09-27T22:53:47.596Z,86162.75
2022-09-27T22:56:20.381Z,86155.22
2022-09-27T22:58:49.444Z,86158.25
2022-09-27T23:01:25.030Z,86160.13
2022-09-27T23:03:54.476Z,86157.50
2022-09-27T23:06:23.218Z,86171.81
2022-09-27T23:08:51.607Z,86175.59
2022-09-27T23:11:22.593Z,86177.81
2022-09-27T23:13:51.228Z,86171.47
2022-09-27T23:16:23.312Z,86174.78
2022-09-27T23:18:56.923Z,86173.72
2022-09-27T23:21:25.979Z,86161.34
2022-09-27T23:23:56.767Z,86169.63
2022-09-27T23:26:26.851Z,86176.75
2022-09-27T23:29:00.185Z,86169.25
2022-09-27T23:31:33.106Z,86165.50
2022-09-27T23:34:04.545Z,86171.50
2022-09-27T23:36:31.912Z,86167.03
2022-09-27T23:39:00.736Z,86169.66
2022-09-27T23:41:27.938Z,86170.41
2022-09-27T23:43:55.281Z,86165.16
2022-09-27T23:46:22.556Z,86176.06
2022-09-27T23:48:49.803Z,86177.56
2022-09-27T23:51:16.937Z,86177.94
2022-09-27T23:53:44.129Z,86174.19
2022-09-27T23:56:16.111Z,86168.94
2022-09-27T23:58:46.058Z,86166.34
